Terminal Aerodrome Forecast
Issued by NWS

Home | Current Version | Previous Version | Text Only | Print | Product List | Glossary On
Versions: 1 2 3 4 5 6 7 8 9 10 11 12 13 14 15 16 17 18
589
FTUS43 KBIS 241728
TAFJMS
TAF
KJMS 241728Z 2418/2518 32008KT P6SM -SN BKN015 OVC025
     FM250300 34010KT P6SM OVC008
     FM250800 33010KT P6SM -SN OVC008
     FM251200 34013KT P6SM OVC008
     FM251700 33015KT P6SM OVC010=

USA.gov is the U.S. government's official web portal to all federal, state and local government web resources and services.